createdAt,value
2018-07-03T00:00:24.413Z,0.80
2018-07-03T00:02:52.985Z,0.60
2018-07-03T00:05:21.384Z,0.90
2018-07-03T00:07:51.181Z,0.80
2018-07-03T00:10:19.572Z,1.07
2018-07-03T00:12:48.285Z,0.80
2018-07-03T00:15:16.717Z,0.80
2018-07-03T00:17:45.149Z,0.90
2018-07-03T00:20:13.183Z,1.10
2018-07-03T00:22:41.585Z,0.90
2018-07-03T00:25:10.013Z,1.00
2018-07-03T00:27:38.408Z,0.90
2018-07-03T00:30:06.815Z,1.03
2018-07-03T00:32:35.212Z,1.10
2018-07-03T00:35:04.845Z,1.10
2018-07-03T00:37:33.345Z,1.00
2018-07-03T00:40:01.746Z,0.90
2018-07-03T00:42:30.175Z,1.10
2018-07-03T00:44:58.688Z,1.40
2018-07-03T00:47:27.120Z,1.13
2018-07-03T00:49:55.519Z,0.97
2018-07-03T00:52:23.898Z,1.00
2018-07-03T00:54:52.280Z,1.00
2018-07-03T00:57:20.709Z,1.10
2018-07-03T01:00:00.320Z,1.37
2018-07-03T01:02:28.723Z,0.80
2018-07-03T01:04:57.164Z,0.83
2018-07-03T01:07:25.561Z,0.70
2018-07-03T01:09:54.029Z,0.80
2018-07-03T01:12:22.424Z,1.27
2018-07-03T01:14:50.852Z,1.13
2018-07-03T01:17:19.322Z,0.90
2018-07-03T01:19:47.714Z,1.07
2018-07-03T01:22:16.181Z,1.20
2018-07-03T01:24:44.604Z,1.10
2018-07-03T01:27:13.036Z,1.50
2018-07-03T01:29:41.696Z,1.07
2018-07-03T01:32:10.105Z,1.20
2018-07-03T01:34:38.497Z,1.20
2018-07-03T01:37:06.922Z,1.13
2018-07-03T01:39:35.334Z,1.17
2018-07-03T01:42:03.761Z,1.10
2018-07-03T01:44:32.157Z,1.10
2018-07-03T01:47:00.701Z,0.87
2018-07-03T01:49:29.102Z,1.40
2018-07-03T01:51:58.416Z,1.10
2018-07-03T01:54:26.856Z,1.03
2018-07-03T01:56:55.242Z,0.80
2018-07-03T01:59:23.635Z,0.97
2018-07-03T02:01:52.010Z,0.97
2018-07-03T02:04:20.416Z,1.00
2018-07-03T02:06:48.812Z,1.00
2018-07-03T02:09:17.216Z,1.10
2018-07-03T02:11:45.608Z,1.10
2018-07-03T02:14:14.010Z,1.30
2018-07-03T02:16:42.419Z,0.90
2018-07-03T02:19:10.821Z,0.90
2018-07-03T02:21:39.254Z,1.10
2018-07-03T02:24:07.651Z,1.10
2018-07-03T02:26:36.060Z,1.27
2018-07-03T02:29:04.477Z,1.20
2018-07-03T02:31:33.743Z,1.33
2018-07-03T02:34:02.147Z,2.50
2018-07-03T02:36:30.569Z,1.47
2018-07-03T02:38:58.969Z,1.20
2018-07-03T02:41:27.655Z,1.40
2018-07-03T02:43:56.044Z,1.40
2018-07-03T02:46:24.555Z,1.50
2018-07-03T02:48:53.017Z,1.20
2018-07-03T02:51:21.589Z,1.60
2018-07-03T02:53:50.006Z,1.50
2018-07-03T02:56:18.434Z,1.10
2018-07-03T02:58:46.838Z,1.60
2018-07-03T03:01:15.222Z,1.30
2018-07-03T03:03:43.662Z,1.57
2018-07-03T03:06:12.069Z,1.40
2018-07-03T03:08:40.496Z,1.80
2018-07-03T03:11:08.989Z,1.50
2018-07-03T03:13:37.369Z,1.60
2018-07-03T03:16:05.846Z,1.73
2018-07-03T03:18:34.231Z,1.53
2018-07-03T03:21:02.645Z,1.50
2018-07-03T03:23:31.056Z,1.80
2018-07-03T03:25:59.522Z,1.60
2018-07-03T03:28:27.976Z,2.07
2018-07-03T03:30:56.364Z,1.73
2018-07-03T03:33:24.789Z,1.70
2018-07-03T03:35:53.216Z,1.53
2018-07-03T03:38:21.632Z,1.40
2018-07-03T03:40:50.029Z,1.60
2018-07-03T03:43:18.422Z,1.50
2018-07-03T03:45:46.845Z,1.50
2018-07-03T03:48:15.295Z,1.40
2018-07-03T03:50:43.679Z,1.57
2018-07-03T03:53:12.101Z,1.90
2018-07-03T03:55:40.545Z,1.70
2018-07-03T03:58:08.961Z,1.90
2018-07-03T04:00:37.370Z,2.03
2018-07-03T04:03:05.904Z,1.73
2018-07-03T04:05:34.314Z,2.03
2018-07-03T04:08:02.684Z,1.80
2018-07-03T04:10:31.696Z,1.77
2018-07-03T04:13:00.116Z,2.07
2018-07-03T04:15:28.519Z,1.80
2018-07-03T04:17:56.923Z,2.30
2018-07-03T04:20:25.353Z,1.83
2018-07-03T04:22:53.799Z,2.00
2018-07-03T04:25:22.205Z,2.33
2018-07-03T04:27:50.589Z,2.23
2018-07-03T04:30:18.990Z,2.87
2018-07-03T04:32:47.452Z,3.07
2018-07-03T04:35:16.114Z,2.10
2018-07-03T04:37:44.497Z,2.70
2018-07-03T04:40:12.904Z,2.60
2018-07-03T04:42:41.302Z,2.60
2018-07-03T04:45:09.696Z,2.00
2018-07-03T04:47:38.105Z,2.07
2018-07-03T04:50:06.560Z,2.13
2018-07-03T04:52:35.001Z,2.40
2018-07-03T04:55:03.420Z,5.77
2018-07-03T04:57:31.953Z,3.87
2018-07-03T05:00:00.358Z,3.53
2018-07-03T05:02:28.820Z,2.57
2018-07-03T05:04:57.240Z,3.10
2018-07-03T05:07:25.680Z,2.33
2018-07-03T05:09:54.408Z,3.27
2018-07-03T05:12:22.827Z,3.80
2018-07-03T05:14:51.230Z,4.10
2018-07-03T05:17:19.694Z,4.70
2018-07-03T05:19:48.261Z,5.30
2018-07-03T05:22:16.682Z,2.53
2018-07-03T05:24:45.250Z,2.97
2018-07-03T05:27:13.604Z,2.90
2018-07-03T05:29:42.024Z,4.07
2018-07-03T05:32:10.870Z,2.33
2018-07-03T05:34:39.281Z,3.17
2018-07-03T05:37:07.773Z,2.42
2018-07-03T05:39:36.284Z,3.33
2018-07-03T05:42:04.769Z,4.03
2018-07-03T05:44:33.178Z,3.72
2018-07-03T05:47:01.589Z,2.83
2018-07-03T05:49:30.097Z,5.35
2018-07-03T05:51:58.541Z,6.03
2018-07-03T05:54:26.948Z,4.28
2018-07-03T05:56:55.366Z,2.35
2018-07-03T05:59:23.837Z,1.77
2018-07-03T06:01:52.222Z,1.80
2018-07-03T06:04:20.648Z,2.33
2018-07-03T06:06:49.052Z,2.27
2018-07-03T06:09:17.548Z,1.90
2018-07-03T06:11:45.872Z,1.80
2018-07-03T06:14:14.307Z,2.08
2018-07-03T06:16:42.813Z,1.60
2018-07-03T06:19:11.232Z,2.50
2018-07-03T06:21:39.690Z,1.50
2018-07-03T06:24:08.280Z,2.10
2018-07-03T06:26:36.713Z,1.95
2018-07-03T06:29:05.316Z,1.55
2018-07-03T06:31:33.604Z,3.52
2018-07-03T06:34:02.009Z,1.60
2018-07-03T06:36:30.505Z,1.22
2018-07-03T06:38:58.924Z,1.65
2018-07-03T06:41:27.366Z,1.35
2018-07-03T06:43:55.761Z,1.20
2018-07-03T06:46:24.330Z,1.40
2018-07-03T06:48:52.737Z,1.45
2018-07-03T06:51:21.161Z,1.40
2018-07-03T06:53:49.604Z,1.90
2018-07-03T06:56:17.984Z,1.22
2018-07-03T06:58:46.384Z,1.42
2018-07-03T07:01:14.832Z,1.20
2018-07-03T07:03:43.219Z,1.00
2018-07-03T07:06:12.108Z,0.95
2018-07-03T07:08:40.574Z,1.32
2018-07-03T07:11:08.943Z,1.22
2018-07-03T07:13:37.383Z,1.10
2018-07-03T07:16:05.824Z,0.98
2018-07-03T07:18:34.229Z,1.37
2018-07-03T07:21:03.552Z,1.07
2018-07-03T07:23:31.959Z,0.90
2018-07-03T07:26:00.413Z,1.20
2018-07-03T07:28:28.796Z,1.10
2018-07-03T07:30:58.140Z,1.20
2018-07-03T07:33:26.561Z,1.20
2018-07-03T07:35:55.190Z,1.40
2018-07-03T07:38:23.561Z,0.90
2018-07-03T07:40:51.933Z,0.98
2018-07-03T07:43:20.355Z,1.00
2018-07-03T07:45:48.801Z,1.20
2018-07-03T07:48:17.836Z,0.90
2018-07-03T07:50:46.221Z,1.12
2018-07-03T07:53:14.686Z,1.05
2018-07-03T07:55:43.120Z,0.90
2018-07-03T07:58:11.873Z,1.10
2018-07-03T08:00:40.322Z,0.90
2018-07-03T08:03:09.713Z,0.90
2018-07-03T08:05:38.128Z,0.90
2018-07-03T08:08:06.651Z,0.90
2018-07-03T08:10:35.077Z,1.30
2018-07-03T08:13:03.519Z,1.10
2018-07-03T08:15:31.953Z,1.00
2018-07-03T08:18:00.346Z,1.00
2018-07-03T08:20:29.905Z,1.30
2018-07-03T08:22:58.296Z,1.20
2018-07-03T08:25:26.697Z,1.20
2018-07-03T08:27:56.045Z,1.10
2018-07-03T08:30:24.512Z,1.17
2018-07-03T08:32:52.896Z,1.37
2018-07-03T08:35:21.372Z,1.27
2018-07-03T08:37:49.804Z,1.60
2018-07-03T08:40:18.263Z,1.37
2018-07-03T08:42:46.705Z,1.60
2018-07-03T08:45:15.137Z,1.27
2018-07-03T08:47:43.829Z,1.32
2018-07-03T08:50:12.247Z,1.27
2018-07-03T08:52:40.689Z,1.42
2018-07-03T08:55:09.177Z,1.32
2018-07-03T08:57:37.559Z,1.12
2018-07-03T09:00:07.864Z,1.30
2018-07-03T09:02:36.537Z,1.20
2018-07-03T09:05:05.185Z,1.02
2018-07-03T09:07:33.590Z,1.40
2018-07-03T09:10:02.032Z,1.55
2018-07-03T09:12:30.477Z,1.50
2018-07-03T09:14:58.898Z,1.17
2018-07-03T09:17:29.349Z,1.40
2018-07-03T09:19:58.495Z,1.35
2018-07-03T09:22:26.917Z,1.30
2018-07-03T09:24:55.360Z,1.20
2018-07-03T09:27:23.768Z,1.17
2018-07-03T09:29:52.166Z,1.37
2018-07-03T09:32:20.585Z,1.30
2018-07-03T09:34:50.113Z,1.00
2018-07-03T09:37:18.613Z,1.30
2018-07-03T09:39:47.804Z,1.10
2018-07-03T09:42:16.209Z,1.10
2018-07-03T09:44:44.640Z,1.05
2018-07-03T09:47:13.045Z,1.00
2018-07-03T09:49:41.620Z,0.95
2018-07-03T09:52:10.076Z,1.10
2018-07-03T09:54:39.473Z,1.00
2018-07-03T09:57:07.839Z,0.90
2018-07-03T09:59:36.234Z,1.50
2018-07-03T10:02:04.685Z,1.17
2018-07-03T10:04:33.134Z,1.30
2018-07-03T10:07:01.582Z,0.90
2018-07-03T10:09:30.017Z,1.60
2018-07-03T10:11:58.447Z,0.90
2018-07-03T10:14:26.883Z,1.20
2018-07-03T10:16:55.291Z,1.20
2018-07-03T10:19:23.702Z,0.90
2018-07-03T10:21:52.123Z,1.85
2018-07-03T10:24:20.550Z,1.47
2018-07-03T10:26:49.000Z,1.20
2018-07-03T10:29:17.405Z,1.50
2018-07-03T10:31:45.857Z,1.12
2018-07-03T10:34:14.285Z,1.10
2018-07-03T10:36:42.681Z,1.10
2018-07-03T10:39:12.457Z,1.00
2018-07-03T10:41:40.992Z,1.00
2018-07-03T10:44:09.492Z,0.82
2018-07-03T10:46:37.893Z,1.00
2018-07-03T10:49:06.319Z,1.27
2018-07-03T10:51:34.768Z,1.10
2018-07-03T10:54:03.271Z,0.90
2018-07-03T10:56:31.616Z,0.95
2018-07-03T10:59:00.012Z,1.62
2018-07-03T11:01:28.416Z,1.05
2018-07-03T11:03:57.002Z,0.93
2018-07-03T11:06:25.472Z,1.10
2018-07-03T11:08:54.829Z,1.00
2018-07-03T11:11:23.409Z,1.30
2018-07-03T11:13:52.160Z,0.93
2018-07-03T11:16:20.803Z,0.82
2018-07-03T11:18:49.651Z,1.45
2018-07-03T11:21:18.326Z,1.00
2018-07-03T11:23:46.853Z,1.00
2018-07-03T11:26:15.683Z,0.97
2018-07-03T11:28:45.104Z,1.10
2018-07-03T11:31:13.802Z,1.17
2018-07-03T11:33:42.407Z,1.20
2018-07-03T11:36:10.955Z,0.90
2018-07-03T11:38:39.492Z,0.80
2018-07-03T11:41:08.086Z,1.00
2018-07-03T11:43:36.665Z,1.37
2018-07-03T11:46:05.215Z,0.93
2018-07-03T11:48:33.628Z,1.00
2018-07-03T11:51:02.223Z,1.57
2018-07-03T11:53:30.737Z,1.83
2018-07-03T11:55:59.177Z,1.17
2018-07-03T11:58:27.657Z,1.17
2018-07-03T12:00:56.197Z,1.03
2018-07-03T12:03:24.751Z,1.23
2018-07-03T12:05:53.189Z,1.40
2018-07-03T12:08:21.996Z,1.20
2018-07-03T12:10:50.515Z,1.10
2018-07-03T12:13:19.083Z,1.30
2018-07-03T12:15:47.931Z,1.00
2018-07-03T12:18:21.777Z,1.20
2018-07-03T12:20:50.268Z,1.22
2018-07-03T12:23:19.115Z,1.20
2018-07-03T12:25:47.892Z,1.10
2018-07-03T12:28:17.100Z,0.90
2018-07-03T12:30:45.732Z,1.30
2018-07-03T12:33:14.643Z,1.20
2018-07-03T12:35:43.345Z,1.20
2018-07-03T12:38:12.665Z,0.80
2018-07-03T12:40:41.201Z,1.30
2018-07-03T12:43:09.838Z,1.20
2018-07-03T12:45:39.017Z,1.20
2018-07-03T12:48:07.744Z,1.27
2018-07-03T12:50:36.777Z,1.10
2018-07-03T12:53:05.733Z,1.30
2018-07-03T12:55:34.425Z,0.90
2018-07-03T12:58:03.059Z,0.97
2018-07-03T13:00:32.355Z,0.80
2018-07-03T13:03:01.272Z,1.10
2018-07-03T13:05:29.984Z,1.30
2018-07-03T13:07:58.616Z,1.20
2018-07-03T13:10:27.504Z,1.10
2018-07-03T13:12:55.995Z,1.13
2018-07-03T13:15:24.548Z,1.10
2018-07-03T13:17:52.998Z,1.00
2018-07-03T13:20:21.471Z,1.90
2018-07-03T13:22:50.126Z,1.87
2018-07-03T13:25:18.772Z,1.33
2018-07-03T13:27:47.542Z,1.20
2018-07-03T13:30:16.065Z,1.40
2018-07-03T13:32:44.532Z,1.50
2018-07-03T13:35:13.016Z,1.57
2018-07-03T13:37:41.957Z,1.40
2018-07-03T13:40:10.969Z,2.03
2018-07-03T13:42:39.395Z,1.00
2018-07-03T13:45:07.998Z,0.90
2018-07-03T13:47:36.393Z,1.07
2018-07-03T13:50:05.328Z,0.97
2018-07-03T13:52:33.768Z,1.60
2018-07-03T13:55:02.292Z,1.23
2018-07-03T13:57:30.688Z,1.43
2018-07-03T13:59:59.129Z,0.90
2018-07-03T14:02:27.513Z,1.37
2018-07-03T14:04:55.984Z,1.33
2018-07-03T14:07:24.402Z,1.17
2018-07-03T14:09:52.932Z,1.00
2018-07-03T14:12:21.370Z,1.40
2018-07-03T14:14:49.829Z,1.13
2018-07-03T14:17:18.289Z,1.30
2018-07-03T14:19:46.806Z,1.40
2018-07-03T14:22:15.198Z,2.00
2018-07-03T14:24:43.642Z,1.40
2018-07-03T14:27:12.077Z,1.77
2018-07-03T14:29:40.516Z,1.07
2018-07-03T14:32:09.145Z,1.37
2018-07-03T14:34:37.560Z,1.50
2018-07-03T14:37:06.127Z,1.60
2018-07-03T14:39:34.542Z,1.70
2018-07-03T14:42:03.524Z,1.60
2018-07-03T14:44:31.989Z,1.57
2018-07-03T14:47:00.455Z,1.17
2018-07-03T14:49:28.843Z,1.10
2018-07-03T14:51:57.286Z,1.60
2018-07-03T14:54:25.729Z,1.20
2018-07-03T14:56:54.277Z,1.03
2018-07-03T14:59:22.689Z,1.30
2018-07-03T15:01:51.122Z,1.13
2018-07-03T15:04:19.692Z,1.03
2018-07-03T15:06:48.145Z,1.40
2018-07-03T15:09:18.364Z,1.53
2018-07-03T15:11:48.099Z,1.70
2018-07-03T15:14:16.872Z,0.97
2018-07-03T15:16:45.611Z,1.10
2018-07-03T15:20:16.647Z,0.90
2018-07-03T15:22:45.253Z,1.40
2018-07-03T15:25:13.669Z,1.50
2018-07-03T15:27:42.159Z,1.20
2018-07-03T15:30:10.721Z,1.20
2018-07-03T15:32:39.209Z,1.00
2018-07-03T15:35:07.661Z,1.37
2018-07-03T15:37:36.091Z,1.00
2018-07-03T15:40:04.593Z,1.27
2018-07-03T15:42:33.733Z,1.07
2018-07-03T15:45:07.596Z,1.20
2018-07-03T15:47:36.129Z,1.40
2018-07-03T15:50:05.432Z,1.47
2018-07-03T15:52:33.858Z,1.33
2018-07-03T15:55:02.316Z,1.30
2018-07-03T15:57:30.738Z,1.47
2018-07-03T15:59:59.254Z,0.90
2018-07-03T16:02:27.769Z,1.00
2018-07-03T16:07:08.355Z,1.40
2018-07-03T16:09:36.760Z,1.70
2018-07-03T16:12:05.285Z,1.67
2018-07-03T16:14:33.804Z,1.60
2018-07-03T16:17:02.294Z,1.60
2018-07-03T16:19:36.038Z,1.60
2018-07-03T16:22:04.481Z,2.03
2018-07-03T16:24:33.262Z,1.10
2018-07-03T16:27:01.689Z,1.10
2018-07-03T16:29:30.155Z,1.20
2018-07-03T16:31:58.636Z,2.10
2018-07-03T16:34:27.053Z,1.13
2018-07-03T16:36:55.728Z,1.40
2018-07-03T16:39:24.157Z,1.50
2018-07-03T16:41:52.736Z,1.70
2018-07-03T16:44:21.203Z,2.10
2018-07-03T16:46:49.596Z,1.70
2018-07-03T16:49:18.098Z,2.20
2018-07-03T16:51:46.509Z,2.33
2018-07-03T16:54:14.992Z,1.60
2018-07-03T16:56:43.421Z,1.83
2018-07-03T16:59:11.863Z,1.67
2018-07-03T17:01:40.326Z,2.10
2018-07-03T17:04:08.786Z,1.80
2018-07-03T17:06:37.258Z,1.40
2018-07-03T17:09:08.661Z,1.70
2018-07-03T17:11:37.137Z,1.80
2018-07-03T17:14:08.068Z,3.37
2018-07-03T17:16:36.567Z,2.73
2018-07-03T17:19:10.493Z,5.90
2018-07-03T17:21:39.054Z,3.00
2018-07-03T17:24:07.491Z,4.30
2018-07-03T17:26:35.951Z,3.03
2018-07-03T17:29:04.469Z,2.10
2018-07-03T17:31:33.165Z,4.40
2018-07-03T17:34:01.946Z,1.80
2018-07-03T17:36:30.451Z,2.30
2018-07-03T17:39:10.858Z,2.60
2018-07-03T17:41:50.433Z,2.00
2018-07-03T17:46:32.058Z,1.67
2018-07-03T17:49:00.602Z,1.90
2018-07-03T17:51:29.136Z,2.07
2018-07-03T17:53:57.605Z,3.33
2018-07-03T17:56:26.075Z,2.73
2018-07-03T17:58:54.771Z,3.03
2018-07-03T18:01:23.567Z,1.73
2018-07-03T18:03:52.250Z,1.73
2018-07-03T18:06:21.746Z,1.77
2018-07-03T18:08:50.680Z,1.70
2018-07-03T18:11:19.494Z,1.90
2018-07-03T18:13:48.268Z,1.37
2018-07-03T18:16:16.975Z,1.93
2018-07-03T18:18:45.503Z,1.60
2018-07-03T18:21:13.970Z,1.80
2018-07-03T18:23:42.381Z,1.70
2018-07-03T18:26:11.761Z,1.80
2018-07-03T18:28:40.220Z,2.43
2018-07-03T18:31:08.999Z,1.50
2018-07-03T18:33:37.449Z,2.27
2018-07-03T18:36:06.034Z,1.87
2018-07-03T18:38:34.466Z,1.80
2018-07-03T18:41:03.244Z,1.63
2018-07-03T18:43:31.709Z,1.63
2018-07-03T18:46:00.162Z,1.57
2018-07-03T18:48:28.774Z,1.70
2018-07-03T19:07:38.305Z,1.80
2018-07-03T19:10:07.118Z,1.90
2018-07-03T19:12:35.609Z,2.10
2018-07-03T19:15:04.531Z,1.90
2018-07-03T19:17:33.042Z,1.90
2018-07-03T19:20:01.509Z,2.13
2018-07-03T19:22:30.090Z,2.23
2018-07-03T19:24:58.442Z,2.60
2018-07-03T19:27:26.947Z,2.50
2018-07-03T19:29:55.477Z,3.67
2018-07-03T19:32:23.987Z,2.40
2018-07-03T19:34:52.574Z,2.70
2018-07-03T19:37:21.043Z,2.77
2018-07-03T19:39:49.678Z,2.97
2018-07-03T19:42:18.248Z,3.10
2018-07-03T19:44:46.848Z,2.57
2018-07-03T19:47:15.431Z,2.97
2018-07-03T19:49:43.851Z,3.53
2018-07-03T19:52:12.477Z,3.13
2018-07-03T19:54:40.927Z,2.90
2018-07-03T19:57:09.373Z,3.53
2018-07-03T19:59:38.255Z,2.97
2018-07-03T20:02:06.976Z,3.37
2018-07-03T20:04:35.427Z,3.03
2018-07-03T20:07:04.655Z,4.50
2018-07-03T20:09:33.367Z,3.63
2018-07-03T20:12:02.129Z,3.60
2018-07-03T20:14:30.571Z,4.23
2018-07-03T20:16:59.238Z,4.47
2018-07-03T20:19:27.853Z,3.93
2018-07-03T20:21:56.472Z,3.80
2018-07-03T20:24:25.107Z,3.93
2018-07-03T20:26:53.647Z,3.40
2018-07-03T20:29:22.497Z,3.73
2018-07-03T20:31:51.021Z,3.63
2018-07-03T20:37:12.893Z,3.97
2018-07-03T20:39:41.429Z,3.33
2018-07-03T20:42:10.043Z,2.87
2018-07-03T20:44:38.912Z,3.20
2018-07-03T20:47:08.294Z,3.50
2018-07-03T20:49:36.949Z,2.90
2018-07-03T20:52:05.550Z,2.40
2018-07-03T20:54:33.893Z,2.53
2018-07-03T20:57:02.567Z,2.67
2018-07-03T20:59:31.393Z,2.47
2018-07-03T21:02:00.677Z,2.60
2018-07-03T21:04:29.920Z,2.77
2018-07-03T21:06:59.254Z,2.03
2018-07-03T21:09:28.085Z,2.50
2018-07-03T21:11:56.832Z,2.50
2018-07-03T21:14:25.306Z,2.60
2018-07-03T21:16:54.052Z,2.53
2018-07-03T21:19:24.742Z,3.03
2018-07-03T21:21:53.959Z,2.87
2018-07-03T21:24:22.564Z,2.60
2018-07-03T21:26:51.273Z,2.50
2018-07-03T21:29:19.865Z,2.40
2018-07-03T21:31:48.634Z,2.50
2018-07-03T21:34:17.076Z,2.40
2018-07-03T21:36:45.725Z,3.10
2018-07-03T21:39:14.352Z,2.17
2018-07-03T21:41:42.827Z,2.97
2018-07-03T21:44:11.073Z,2.50
2018-07-03T21:46:39.957Z,2.60
2018-07-03T21:49:08.540Z,2.40
2018-07-03T21:51:37.226Z,2.10
2018-07-03T21:54:05.800Z,2.70
2018-07-03T21:56:34.403Z,2.77
2018-07-03T21:59:02.986Z,3.73
2018-07-03T22:01:31.650Z,2.43
2018-07-03T22:04:00.079Z,2.70
2018-07-03T22:06:28.600Z,3.00
2018-07-03T22:08:57.273Z,2.30
2018-07-03T22:11:25.878Z,2.40
2018-07-03T22:13:54.486Z,2.20
2018-07-03T22:16:22.776Z,2.10
2018-07-03T22:18:51.921Z,2.20
2018-07-03T22:21:20.615Z,2.20
2018-07-03T22:23:49.146Z,2.53
2018-07-03T22:26:17.848Z,2.23
2018-07-03T22:28:46.442Z,2.60
2018-07-03T22:31:15.171Z,2.50
2018-07-03T22:33:43.728Z,2.63
2018-07-03T22:36:12.464Z,2.67
2018-07-03T22:38:41.017Z,2.50
2018-07-03T22:41:09.465Z,2.43
2018-07-03T22:43:38.214Z,2.60
2018-07-03T22:46:06.630Z,2.37
2018-07-03T22:48:35.063Z,2.17
2018-07-03T22:51:03.697Z,2.50
2018-07-03T22:53:32.170Z,2.60
2018-07-03T22:56:01.047Z,2.10
2018-07-03T22:58:29.717Z,2.30
2018-07-03T23:00:58.240Z,2.67
2018-07-03T23:03:26.885Z,2.50
2018-07-03T23:05:56.220Z,2.30
2018-07-03T23:08:25.361Z,3.00
2018-07-03T23:10:53.847Z,2.47
2018-07-03T23:13:22.441Z,2.33
2018-07-03T23:15:50.946Z,1.87
2018-07-03T23:18:19.535Z,2.20
2018-07-03T23:20:48.305Z,2.27
2018-07-03T23:23:16.874Z,2.20
2018-07-03T23:25:45.432Z,2.10
2018-07-03T23:28:14.061Z,1.70
2018-07-03T23:30:42.496Z,2.40
2018-07-03T23:33:11.169Z,2.20
2018-07-03T23:35:39.603Z,2.23
2018-07-03T23:38:08.133Z,2.10
2018-07-03T23:40:36.630Z,1.90
2018-07-03T23:43:05.092Z,2.13
2018-07-03T23:45:39.063Z,1.97
2018-07-03T23:48:19.022Z,1.50
2018-07-03T23:50:58.922Z,1.83
2018-07-03T23:53:38.590Z,2.07
2018-07-03T23:56:18.317Z,2.00
2018-07-03T23:58:58.147Z,1.73
